Time;durP1;ratioP1;P1;durP2;ratioP2;P2;SDS_P1;SDS_P2;PMS_P1;PMS_P2;Temp;Humidity;BMP_temperature;BMP_pressure;BME280_temperature;BME280_humidity;BME280_pressure;Samples;Min_cycle;Max_cycle;Signal;HPM_P1;HPM_P2
2022/09/18 00:01:21;;;;;;;4.57;3.33;;;;;;;17.04;nan;-24291.81;5034535;28;20637;-72
2022/09/18 00:03:47;;;;;;;7.38;2.90;;;;;;;17.23;nan;-24297.28;5052644;28;20308;-73
2022/09/18 00:06:23;;;;;;;9.77;3.58;;;;;;;17.27;nan;-24298.25;5053801;28;20186;-72
2022/09/18 00:08:53;;;;;;;6.22;2.70;;;;;;;17.00;nan;-24290.72;5057019;28;20205;-72
2022/09/18 00:11:22;;;;;;;5.07;3.13;;;;;;;17.05;nan;-24292.09;5037867;28;20174;-73
2022/09/18 00:13:48;;;;;;;5.38;2.97;;;;;;;17.17;nan;-24295.44;5055564;28;20252;-72
2022/09/18 00:16:15;;;;;;;5.55;2.90;;;;;;;16.99;nan;-24290.56;5038116;28;20170;-72
2022/09/18 00:18:41;;;;;;;4.32;2.90;;;;;;;16.95;nan;-24289.31;5055836;28;20725;-73
2022/09/18 00:21:13;;;;;;;5.50;3.22;;;;;;;17.20;nan;-24296.28;5038180;28;20197;-73
2022/09/18 00:23:40;;;;;;;6.57;2.97;;;;;;;17.21;nan;-24296.72;5057108;28;20171;-72
2022/09/18 00:26:07;;;;;;;3.17;2.33;;;;;;;17.03;nan;-24291.53;5043087;28;20257;-73
2022/09/18 00:28:33;;;;;;;3.83;2.47;;;;;;;16.95;nan;-24289.44;5057011;28;20179;-72
2022/09/18 00:31:04;;;;;;;2.67;2.00;;;;;;;16.74;nan;-24283.59;5058229;28;20245;-72
2022/09/18 00:33:29;;;;;;;4.30;2.47;;;;;;;16.64;nan;-24280.78;5058455;28;20174;-72
2022/09/18 00:35:59;;;;;;;4.55;2.80;;;;;;;17.16;nan;-24295.31;5056697;28;20508;-71
2022/09/18 00:38:24;;;;;;;3.03;2.22;;;;;;;16.90;nan;-24287.91;5058205;28;20174;-72
2022/09/18 00:40:50;;;;;;;4.40;2.17;;;;;;;16.91;nan;-24288.19;5056906;28;20167;-72
2022/09/18 00:43:18;;;;;;;2.33;1.90;;;;;;;16.96;nan;-24289.72;5056347;28;20265;-73
2022/09/18 00:45:54;;;;;;;3.92;2.08;;;;;;;17.08;nan;-24292.94;5055753;28;20191;-73
2022/09/18 00:48:21;;;;;;;3.47;2.35;;;;;;;16.65;nan;-24281.22;5056429;28;20171;-72
2022/09/18 00:50:47;;;;;;;3.15;2.28;;;;;;;16.96;nan;-24289.59;5056242;28;20179;-75
2022/09/18 00:53:12;;;;;;;3.97;2.20;;;;;;;16.64;nan;-24280.78;5057572;28;20724;-75
2022/09/18 00:55:39;;;;;;;2.75;2.33;;;;;;;16.94;nan;-24289.03;5057687;28;20206;-79
2022/09/18 00:58:05;;;;;;;3.08;2.10;;;;;;;16.91;nan;-24288.19;5038717;28;20175;-76
2022/09/18 01:00:31;;;;;;;4.88;2.78;;;;;;;16.65;nan;-24281.06;5057455;28;20170;-76
2022/09/18 01:03:00;;;;;;;3.72;2.78;;;;;;;16.63;nan;-24280.66;5057863;28;20696;-76
2022/09/18 01:05:37;;;;;;;6.30;3.00;;;;;;;17.00;nan;-24290.72;5056360;28;20266;-78
2022/09/18 01:08:47;;;;;;;4.05;2.30;;;;;;;17.04;nan;-24291.97;5056704;28;20173;-78
2022/09/18 01:11:19;;;;;;;3.03;2.30;;;;;;;17.07;nan;-24292.66;5055973;28;20174;-78
2022/09/18 01:14:00;;;;;;;5.90;2.70;;;;;;;17.03;nan;-24291.69;5058030;28;20191;-75
2022/09/18 01:16:44;;;;;;;5.13;2.92;;;;;;;17.08;nan;-24292.94;5058911;28;20710;-76
2022/09/18 01:19:25;;;;;;;4.85;2.78;;;;;;;17.17;nan;-24295.44;5038932;28;20182;-77
2022/09/18 01:22:45;;;;;;;4.47;2.72;;;;;;;17.25;nan;-24297.56;5056427;28;20270;-77
2022/09/18 01:25:21;;;;;;;6.90;2.78;;;;;;;17.19;nan;-24296.00;4974338;28;20212;-75
2022/09/18 01:28:24;;;;;;;9.68;3.28;;;;;;;17.25;nan;-24297.56;4974022;28;20189;-78
2022/09/18 01:30:53;;;;;;;6.10;3.35;;;;;;;17.00;nan;-24290.84;5037179;28;20221;-76
2022/09/18 01:33:37;;;;;;;4.70;2.75;;;;;;;17.18;nan;-24295.72;5054897;28;20171;-78
2022/09/18 01:36:07;;;;;;;5.88;3.03;;;;;;;17.11;nan;-24293.78;5037058;28;20252;-76
2022/09/18 01:38:58;;;;;;;4.82;3.00;;;;;;;17.30;nan;-24299.09;5036433;28;20584;-76
2022/09/18 01:41:26;;;;;;;4.60;3.30;;;;;;;17.20;nan;-24296.28;5054322;28;20538;-78
2022/09/18 01:44:19;;;;;;;5.70;3.45;;;;;;;17.44;nan;-24303.00;5052515;28;20252;-76
2022/09/18 01:46:47;;;;;;;5.50;3.05;;;;;;;17.18;nan;-24295.88;5033978;28;20317;-79
2022/09/18 01:49:18;;;;;;;8.48;3.35;;;;;;;17.27;nan;-24298.09;5034226;28;20536;-75
2022/09/18 01:51:54;;;;;;;4.95;3.08;;;;;;;17.39;nan;-24301.44;5033762;28;20382;-77
2022/09/18 01:54:32;;;;;;;6.85;3.75;;;;;;;17.31;nan;-24299.38;5033378;28;20545;-78
2022/09/18 01:57:12;;;;;;;7.75;3.70;;;;;;;17.65;nan;-24308.72;5032910;28;20188;-76
2022/09/18 01:59:43;;;;;;;7.47;3.97;;;;;;;17.59;nan;-24307.19;5033822;28;20618;-76
2022/09/18 02:02:47;;;;;;;5.05;3.55;;;;;;;17.52;nan;-24305.22;5033244;28;20219;-78
2022/09/18 02:05:20;;;;;;;8.25;3.85;;;;;;;17.56;nan;-24306.34;5025278;28;20242;-78
2022/09/18 02:08:00;;;;;;;6.13;3.58;;;;;;;17.57;nan;-24306.47;5033686;28;20171;-78
2022/09/18 02:10:30;;;;;;;4.88;3.35;;;;;;;17.26;nan;-24297.97;5032583;28;20258;-78
2022/09/18 02:12:56;;;;;;;8.73;2.95;;;;;;;17.23;nan;-24297.13;5032486;28;20179;-79
2022/09/18 02:15:28;;;;;;;6.43;3.78;;;;;;;17.41;nan;-24302.00;5034144;28;20183;-78
2022/09/18 02:18:17;;;;;;;10.02;4.13;;;;;;;17.55;nan;-24306.06;5033742;28;20254;-76
2022/09/18 02:20:45;;;;;;;5.72;3.42;;;;;;;17.20;nan;-24296.28;5033861;28;20175;-77
2022/09/18 02:23:11;;;;;;;6.57;2.97;;;;;;;17.43;nan;-24302.56;5034194;28;20174;-76
2022/09/18 02:25:54;;;;;;;7.10;4.07;;;;;;;17.44;nan;-24303.00;5033147;28;20203;-79
2022/09/18 02:28:23;;;;;;;9.13;3.95;;;;;;;17.13;nan;-24294.34;5033292;28;20174;-76
2022/09/18 02:30:48;;;;;;;8.90;3.92;;;;;;;17.35;nan;-24300.47;5034047;28;20191;-80
2022/09/18 02:33:35;;;;;;;8.02;3.80;;;;;;;17.40;nan;-24301.88;5034146;28;20175;-78
2022/09/18 02:36:21;;;;;;;6.03;3.65;;;;;;;17.48;nan;-24304.09;5035884;28;20171;-79
2022/09/18 02:39:14;;;;;;;8.65;4.00;;;;;;;17.51;nan;-24304.94;5036622;28;20634;-76
2022/09/18 02:41:54;;;;;;;7.47;3.67;;;;;;;17.46;nan;-24303.41;5034103;28;20171;-78
2022/09/18 02:44:37;;;;;;;8.93;4.30;;;;;;;17.16;nan;-24295.31;5033943;28;20186;-76
2022/09/18 02:47:16;;;;;;;10.00;4.47;;;;;;;17.34;nan;-24300.19;5032820;28;20172;-81
2022/09/18 02:49:55;;;;;;;10.70;3.95;;;;;;;17.14;nan;-24294.75;5034072;28;20217;-78
2022/09/18 02:52:37;;;;;;;9.85;3.92;;;;;;;17.36;nan;-24300.75;5032293;28;20171;-79
2022/09/18 02:55:26;;;;;;;10.85;4.47;;;;;;;17.11;nan;-24293.78;5034038;28;20175;-79
2022/09/18 02:57:57;;;;;;;8.38;4.57;;;;;;;17.08;nan;-24292.94;5033141;28;20251;-79
2022/09/18 03:00:25;;;;;;;8.55;4.90;;;;;;;17.30;nan;-24298.94;5033677;28;20160;-78
2022/09/18 03:02:50;;;;;;;9.57;4.00;;;;;;;17.12;nan;-24294.19;5033471;28;20309;-79
2022/09/18 03:05:16;;;;;;;9.40;4.32;;;;;;;17.46;nan;-24303.41;5033413;28;20286;-78
2022/09/18 03:07:42;;;;;;;10.43;3.70;;;;;;;17.28;nan;-24298.38;5033443;28;20191;-75
2022/09/18 03:10:08;;;;;;;5.93;3.50;;;;;;;17.20;nan;-24296.28;5031710;28;20213;-77
2022/09/18 03:12:34;;;;;;;6.70;3.50;;;;;;;17.42;nan;-24302.44;5032735;28;20175;-78
2022/09/18 03:14:59;;;;;;;6.75;3.80;;;;;;;17.10;nan;-24293.50;5033165;28;20182;-79
2022/09/18 03:17:25;;;;;;;10.27;3.72;;;;;;;17.26;nan;-24297.81;5033647;28;20207;-79
2022/09/18 03:19:50;;;;;;;8.60;3.85;;;;;;;17.44;nan;-24302.84;5033315;28;20178;-77
2022/09/18 03:22:16;;;;;;;10.88;4.18;;;;;;;17.29;nan;-24298.66;5032939;28;20174;-80
2022/09/18 03:24:41;;;;;;;8.13;3.30;;;;;;;17.49;nan;-24304.38;5032864;28;20210;-77
2022/09/18 03:27:09;;;;;;;6.68;3.17;;;;;;;17.40;nan;-24301.88;5032347;28;20175;-77
2022/09/18 03:29:34;;;;;;;7.25;3.03;;;;;;;17.22;nan;-24296.84;5033073;28;20282;-76
2022/09/18 03:32:00;;;;;;;3.65;2.25;;;;;;;17.03;nan;-24291.69;5033490;28;20175;-78
2022/09/18 03:34:25;;;;;;;4.32;1.83;;;;;;;16.95;nan;-24289.44;5031543;28;20681;-77
2022/09/18 03:36:51;;;;;;;3.50;2.08;;;;;;;17.17;nan;-24295.44;5032576;28;20254;-76
2022/09/18 03:39:17;;;;;;;3.22;2.00;;;;;;;16.93;nan;-24288.88;5031947;28;20615;-78
2022/09/18 03:41:42;;;;;;;1.65;1.55;;;;;;;16.74;nan;-24283.72;5031765;28;20476;-77
2022/09/18 03:44:08;;;;;;;4.47;2.00;;;;;;;16.68;nan;-24282.03;5031353;28;20561;-78
2022/09/18 03:46:33;;;;;;;3.03;1.70;;;;;;;16.92;nan;-24288.63;5032302;28;20175;-77
2022/09/18 03:48:58;;;;;;;4.13;1.80;;;;;;;16.94;nan;-24289.16;5032989;28;20649;-79
2022/09/18 03:51:24;;;;;;;2.55;1.83;;;;;;;16.61;nan;-24280.09;5031289;28;20171;-78
2022/09/18 03:53:52;;;;;;;2.45;2.08;;;;;;;16.80;nan;-24285.25;5032093;28;20650;-78
2022/09/18 03:56:17;;;;;;;2.38;1.77;;;;;;;16.90;nan;-24287.91;5031385;28;20202;-78
2022/09/18 03:58:43;;;;;;;2.35;2.03;;;;;;;16.77;nan;-24284.56;5032844;28;20226;-80
2022/09/18 04:01:09;;;;;;;3.33;2.10;;;;;;;16.94;nan;-24289.03;5032570;28;20179;-78
2022/09/18 04:03:35;;;;;;;3.67;1.98;;;;;;;16.86;nan;-24286.78;5030734;28;20231;-78
2022/09/18 04:06:01;;;;;;;1.95;1.65;;;;;;;16.38;nan;-24273.66;5031953;28;20171;-76
2022/09/18 04:08:27;;;;;;;1.50;1.40;;;;;;;16.47;nan;-24276.03;5032338;28;20199;-77
2022/09/18 04:10:52;;;;;;;1.92;1.60;;;;;;;16.39;nan;-24273.94;5032148;28;20221;-78
2022/09/18 04:13:18;;;;;;;2.03;1.52;;;;;;;16.07;nan;-24265.00;5043422;28;20190;-77
2022/09/18 04:15:46;;;;;;;1.40;1.30;;;;;;;16.11;nan;-24266.09;5034245;28;20193;-76
2022/09/18 04:18:11;;;;;;;2.05;1.60;;;;;;;15.94;nan;-24261.34;5052106;28;20257;-77
2022/09/18 04:20:37;;;;;;;2.08;1.42;;;;;;;15.69;nan;-24254.63;5052383;28;20266;-78
2022/09/18 04:23:02;;;;;;;1.38;1.27;;;;;;;15.73;nan;-24255.75;5051989;28;20175;-77
2022/09/18 04:25:28;;;;;;;1.98;1.30;;;;;;;15.38;nan;-24245.94;5033579;28;20213;-78
2022/09/18 04:27:54;;;;;;;1.20;1.10;;;;;;;15.65;nan;-24253.50;5051537;28;20167;-76
2022/09/18 04:30:19;;;;;;;1.70;1.30;;;;;;;15.30;nan;-24243.84;5052036;28;20312;-78
2022/09/18 04:32:45;;;;;;;0.90;0.90;;;;;;;15.24;nan;-24242.03;5040531;28;20178;-76
2022/09/18 04:35:11;;;;;;;1.15;1.08;;;;;;;15.58;nan;-24251.56;5039395;28;20175;-76
2022/09/18 04:37:36;;;;;;;1.10;1.00;;;;;;;15.44;nan;-24247.78;5045586;28;20308;-74
2022/09/18 04:40:04;;;;;;;1.20;1.10;;;;;;;15.31;nan;-24244.13;5042240;28;20171;-74
2022/09/18 04:42:30;;;;;;;1.15;1.00;;;;;;;15.34;nan;-24244.97;5041366;28;20164;-73
2022/09/18 04:44:55;;;;;;;1.15;1.05;;;;;;;15.48;nan;-24248.91;5040373;28;20194;-68
2022/09/18 04:47:21;;;;;;;0.95;0.95;;;;;;;15.07;nan;-24237.28;5042047;28;20197;-71
2022/09/18 04:49:49;;;;;;;1.20;1.10;;;;;;;15.24;nan;-24242.03;5040660;28;20546;-68
2022/09/18 04:52:14;;;;;;;1.27;1.17;;;;;;;15.14;nan;-24239.22;5042914;28;20206;-66
2022/09/18 04:54:40;;;;;;;0.98;0.98;;;;;;;14.80;nan;-24229.97;5042737;28;20257;-67
2022/09/18 04:57:05;;;;;;;1.10;1.10;;;;;;;15.57;nan;-24251.13;5035212;28;20187;-65
2022/09/18 04:59:31;;;;;;;1.38;1.20;;;;;;;15.40;nan;-24246.50;5034341;28;20176;-65
2022/09/18 05:01:56;;;;;;;1.20;1.10;;;;;;;15.88;nan;-24259.94;5034135;28;20568;-65
2022/09/18 05:04:22;;;;;;;1.30;1.05;;;;;;;15.63;nan;-24252.94;5042196;28;20217;-65
2022/09/18 05:06:47;;;;;;;1.02;1.00;;;;;;;16.07;nan;-24265.00;5029515;28;20186;-65
2022/09/18 05:09:12;;;;;;;1.13;1.02;;;;;;;16.19;nan;-24268.34;5014892;28;20643;-64
2022/09/18 05:11:38;;;;;;;1.10;1.10;;;;;;;16.22;nan;-24269.19;5024320;28;20184;-64
2022/09/18 05:14:03;;;;;;;1.10;1.00;;;;;;;15.99;nan;-24262.88;5036218;28;20186;-65
2022/09/18 05:16:28;;;;;;;1.10;1.00;;;;;;;16.22;nan;-24269.19;5040398;28;20262;-63
2022/09/18 05:18:54;;;;;;;1.40;1.30;;;;;;;16.43;nan;-24275.06;5034087;28;20232;-64
2022/09/18 05:21:19;;;;;;;1.10;1.00;;;;;;;16.44;nan;-24275.34;5034357;28;20182;-64
2022/09/18 05:23:45;;;;;;;1.35;1.20;;;;;;;16.47;nan;-24276.03;5034393;28;20194;-63
2022/09/18 05:26:12;;;;;;;1.50;1.20;;;;;;;16.25;nan;-24270.16;5034258;28;20182;-64
2022/09/18 05:28:37;;;;;;;2.38;1.20;;;;;;;16.45;nan;-24275.47;5034209;28;20159;-64
2022/09/18 05:31:03;;;;;;;1.48;1.30;;;;;;;16.55;nan;-24278.41;5034373;28;20324;-63
2022/09/18 05:33:29;;;;;;;1.75;1.40;;;;;;;16.43;nan;-24275.06;5034073;28;20175;-65
2022/09/18 05:35:56;;;;;;;1.20;1.10;;;;;;;16.67;nan;-24281.78;5034201;28;20183;-63
2022/09/18 05:38:22;;;;;;;1.17;1.10;;;;;;;16.63;nan;-24280.50;5034120;28;20536;-66
2022/09/18 05:40:48;;;;;;;0.85;0.85;;;;;;;16.45;nan;-24275.63;5033270;28;20187;-64
2022/09/18 05:43:14;;;;;;;1.27;1.17;;;;;;;16.19;nan;-24268.34;5041551;28;20182;-63
2022/09/18 05:45:39;;;;;;;1.15;1.00;;;;;;;16.75;nan;-24284.00;5042786;28;20207;-64
2022/09/18 05:48:06;;;;;;;1.00;0.95;;;;;;;16.76;nan;-24284.13;5023880;28;20188;-63
2022/09/18 05:50:33;;;;;;;1.25;1.10;;;;;;;16.89;nan;-24287.78;5013410;28;20168;-67
2022/09/18 05:53:04;;;;;;;0.90;0.90;;;;;;;16.78;nan;-24284.84;5028992;28;20206;-66
2022/09/18 05:55:30;;;;;;;1.15;1.08;;;;;;;16.52;nan;-24277.44;5033168;28;20626;-67
2022/09/18 05:57:57;;;;;;;1.00;1.00;;;;;;;16.58;nan;-24279.25;5033738;28;20199;-65
2022/09/18 06:00:24;;;;;;;0.90;0.90;;;;;;;17.04;nan;-24291.97;5033697;28;20246;-63
2022/09/18 06:02:53;;;;;;;1.15;1.05;;;;;;;16.99;nan;-24290.44;5033032;28;20264;-65
2022/09/18 06:05:18;;;;;;;0.90;0.90;;;;;;;17.04;nan;-24291.81;5033041;28;20194;-63
2022/09/18 06:07:43;;;;;;;1.10;1.00;;;;;;;16.81;nan;-24285.53;5032800;28;20176;-65
2022/09/18 06:10:09;;;;;;;1.20;1.10;;;;;;;16.78;nan;-24284.84;5033383;28;20582;-65
2022/09/18 06:12:34;;;;;;;1.40;1.00;;;;;;;16.71;nan;-24282.88;5033404;28;20554;-65
2022/09/18 06:15:00;;;;;;;1.75;1.08;;;;;;;16.76;nan;-24284.13;5032995;28;20171;-65
2022/09/18 06:17:25;;;;;;;0.93;0.93;;;;;;;16.74;nan;-24283.72;5041784;28;20222;-63
2022/09/18 06:19:50;;;;;;;1.15;1.08;;;;;;;16.66;nan;-24281.34;5032460;28;20658;-65
2022/09/18 06:22:16;;;;;;;1.20;1.10;;;;;;;16.39;nan;-24273.78;5041857;28;20183;-62
2022/09/18 06:24:41;;;;;;;1.00;1.00;;;;;;;16.70;nan;-24282.47;5022843;28;20302;-63
2022/09/18 06:27:07;;;;;;;1.63;1.30;;;;;;;16.82;nan;-24285.81;5013176;28;20183;-62
2022/09/18 06:29:32;;;;;;;1.23;1.08;;;;;;;17.00;nan;-24290.72;5028097;28;20613;-63
2022/09/18 06:31:57;;;;;;;1.20;1.10;;;;;;;17.00;nan;-24290.84;5037096;28;20186;-63
2022/09/18 06:34:23;;;;;;;1.35;1.23;;;;;;;17.09;nan;-24293.22;5042711;28;20169;-65
2022/09/18 06:36:49;;;;;;;1.85;1.02;;;;;;;17.16;nan;-24295.16;5044353;28;20191;-65
2022/09/18 06:39:14;;;;;;;1.17;1.13;;;;;;;16.87;nan;-24287.06;5041741;28;20551;-64
2022/09/18 06:41:41;;;;;;;8.55;2.45;;;;;;;17.14;nan;-24294.63;5034275;28;20171;-65
2022/09/18 06:44:07;;;;;;;1.33;1.23;;;;;;;17.67;nan;-24309.28;5032702;28;20199;-64
2022/09/18 06:46:32;;;;;;;1.30;1.20;;;;;;;16.88;nan;-24287.34;5032922;28;20176;-63
2022/09/18 06:48:58;;;;;;;2.10;1.55;;;;;;;16.70;nan;-24282.47;5032799;28;20163;-64
2022/09/18 06:51:24;;;;;;;1.30;1.20;;;;;;;16.93;nan;-24288.75;5032201;28;20650;-65
2022/09/18 06:53:49;;;;;;;1.17;1.08;;;;;;;16.72;nan;-24283.16;5032483;28;20646;-64
2022/09/18 06:56:14;;;;;;;1.60;1.30;;;;;;;16.45;nan;-24275.63;5032398;28;20210;-64
2022/09/18 06:58:40;;;;;;;1.20;1.10;;;;;;;16.44;nan;-24275.34;5032495;28;20185;-65
2022/09/18 07:01:05;;;;;;;1.42;1.33;;;;;;;16.58;nan;-24279.13;5032040;28;20241;-65
2022/09/18 07:03:31;;;;;;;1.50;1.40;;;;;;;16.16;nan;-24267.66;5032099;28;20235;-65
2022/09/18 07:05:56;;;;;;;1.45;1.30;;;;;;;16.32;nan;-24271.97;5031753;28;20203;-65
2022/09/18 07:08:22;;;;;;;1.88;1.50;;;;;;;16.49;nan;-24276.72;5032233;28;20167;-65
2022/09/18 07:10:47;;;;;;;1.60;1.50;;;;;;;16.31;nan;-24271.69;5032184;28;20206;-64
2022/09/18 07:13:12;;;;;;;1.85;1.20;;;;;;;16.15;nan;-24267.22;5032257;28;20179;-64
2022/09/18 07:15:38;;;;;;;1.70;1.45;;;;;;;16.29;nan;-24271.13;5031789;28;20274;-65
2022/09/18 07:18:05;;;;;;;1.30;1.20;;;;;;;16.54;nan;-24278.00;5031547;28;20214;-63
2022/09/18 07:20:31;;;;;;;1.83;1.38;;;;;;;16.21;nan;-24269.03;5031960;28;20232;-64
2022/09/18 07:22:59;;;;;;;3.80;1.50;;;;;;;16.39;nan;-24273.94;5032410;28;20250;-64
2022/09/18 07:25:26;;;;;;;1.40;1.30;;;;;;;16.18;nan;-24268.06;5031898;28;20297;-64
2022/09/18 07:27:52;;;;;;;1.42;1.33;;;;;;;16.40;nan;-24274.22;5032020;28;20695;-64
2022/09/18 07:30:18;;;;;;;1.45;1.27;;;;;;;16.51;nan;-24277.16;5031967;28;20175;-64
2022/09/18 07:32:44;;;;;;;0.93;0.93;;;;;;;16.48;nan;-24276.44;5031408;28;20565;-63
2022/09/18 07:35:10;;;;;;;1.38;1.25;;;;;;;16.25;nan;-24270.16;5031472;28;20183;-63
2022/09/18 07:37:36;;;;;;;2.10;1.42;;;;;;;16.63;nan;-24280.66;5032153;28;20170;-63
2022/09/18 07:40:02;;;;;;;1.50;1.33;;;;;;;16.66;nan;-24281.50;5031902;28;20987;-63
2022/09/18 07:42:28;;;;;;;1.33;1.23;;;;;;;16.61;nan;-24279.94;5031748;28;20244;-62
2022/09/18 07:44:53;;;;;;;1.30;1.20;;;;;;;16.47;nan;-24276.16;5031894;28;20202;-65
2022/09/18 07:47:19;;;;;;;1.20;1.10;;;;;;;16.10;nan;-24265.97;5031352;28;20569;-63
2022/09/18 07:49:44;;;;;;;1.25;1.15;;;;;;;16.33;nan;-24272.25;5031235;28;20168;-63
2022/09/18 07:52:10;;;;;;;1.40;1.13;;;;;;;16.55;nan;-24278.28;5031581;28;20171;-65
2022/09/18 07:54:36;;;;;;;1.40;1.30;;;;;;;16.51;nan;-24277.28;5031603;28;20171;-64
2022/09/18 07:57:02;;;;;;;1.42;1.33;;;;;;;16.21;nan;-24268.91;5031662;28;20175;-65
2022/09/18 07:59:27;;;;;;;1.15;1.05;;;;;;;16.38;nan;-24273.66;5013699;28;20206;-66
2022/09/18 08:01:54;;;;;;;1.45;1.35;;;;;;;16.44;nan;-24275.34;5030517;28;20266;-65
2022/09/18 08:04:21;;;;;;;1.40;1.30;;;;;;;16.50;nan;-24277.00;5031312;28;20302;-65
2022/09/18 08:06:53;;;;;;;1.55;1.45;;;;;;;16.71;nan;-24282.75;5031553;28;20261;-64
2022/09/18 08:09:21;;;;;;;1.30;1.20;;;;;;;16.45;nan;-24275.47;5031512;28;20170;-64
2022/09/18 08:11:50;;;;;;;1.42;1.33;;;;;;;16.88;nan;-24287.34;5031730;28;20193;-64
2022/09/18 08:14:15;;;;;;;3.13;1.20;;;;;;;16.69;nan;-24282.31;5031531;28;20176;-64
2022/09/18 08:16:41;;;;;;;1.20;1.10;;;;;;;16.63;nan;-24280.50;5013767;28;20309;-63
2022/09/18 08:19:07;;;;;;;1.20;1.10;;;;;;;17.06;nan;-24292.53;5031116;28;20253;-65
2022/09/18 08:21:33;;;;;;;1.40;1.27;;;;;;;17.01;nan;-24291.13;5030905;28;20199;-64
2022/09/18 08:23:58;;;;;;;1.48;1.25;;;;;;;16.78;nan;-24284.84;5031389;28;20202;-63
2022/09/18 08:26:24;;;;;;;2.70;1.98;;;;;;;17.07;nan;-24292.66;5031694;28;20171;-64
2022/09/18 08:28:49;;;;;;;1.60;1.40;;;;;;;17.06;nan;-24292.38;5035290;28;20173;-64
2022/09/18 08:31:15;;;;;;;2.22;1.30;;;;;;;16.75;nan;-24283.88;5035336;28;20168;-65
2022/09/18 08:33:40;;;;;;;1.63;1.42;;;;;;;17.05;nan;-24292.25;5035107;28;20716;-64
2022/09/18 08:36:06;;;;;;;1.35;1.25;;;;;;;17.34;nan;-24300.19;5036324;28;20632;-64
2022/09/18 08:38:32;;;;;;;1.23;1.10;;;;;;;17.00;nan;-24290.84;5035151;28;20599;-64
2022/09/18 08:41:12;;;;;;;1.45;1.35;;;;;;;16.95;nan;-24289.31;5035096;28;20163;-64
2022/09/18 08:43:50;;;;;;;1.30;1.20;;;;;;;16.40;nan;-24274.06;5035059;28;20197;-64
2022/09/18 08:46:29;;;;;;;1.30;1.20;;;;;;;17.12;nan;-24294.19;5034786;28;20159;-65
2022/09/18 08:49:12;;;;;;;1.60;1.20;;;;;;;17.68;nan;-24309.56;5034628;28;20285;-64
2022/09/18 08:51:59;;;;;;;1.15;1.05;;;;;;;17.78;nan;-24312.34;5034396;28;20604;-65
2022/09/18 08:54:38;;;;;;;1.02;0.90;;;;;;;17.78;nan;-24312.19;5034315;28;20174;-65
2022/09/18 08:57:13;;;;;;;1.45;1.20;;;;;;;18.06;nan;-24320.16;5037114;28;20183;-63
2022/09/18 08:59:43;;;;;;;0.90;0.90;;;;;;;18.29;nan;-24326.41;5034417;28;20258;-64
2022/09/18 09:02:28;;;;;;;1.02;1.00;;;;;;;18.45;nan;-24330.75;5034234;28;20302;-65
2022/09/18 09:04:57;;;;;;;0.90;0.90;;;;;;;18.25;nan;-24325.16;5034467;28;20214;-65
2022/09/18 09:07:57;;;;;;;3.20;1.20;;;;;;;18.44;nan;-24330.59;5034054;28;20639;-65
2022/09/18 09:10:41;;;;;;;1.15;1.05;;;;;;;18.79;nan;-24340.06;5034032;28;20164;-67
2022/09/18 09:13:09;;;;;;;1.23;0.90;;;;;;;18.75;nan;-24338.97;5016123;28;20179;-67
2022/09/18 09:15:46;;;;;;;1.08;1.05;;;;;;;18.85;nan;-24341.88;5034892;28;20190;-67
2022/09/18 09:18:15;;;;;;;1.45;1.00;;;;;;;18.94;nan;-24344.25;5034240;28;20285;-65
2022/09/18 09:21:06;;;;;;;1.85;1.13;;;;;;;19.06;nan;-24347.44;5034430;28;20226;-66
2022/09/18 09:23:40;;;;;;;2.58;1.63;;;;;;;19.35;nan;-24355.66;5034556;28;20198;-65
2022/09/18 09:26:10;;;;;;;1.40;1.20;;;;;;;18.80;nan;-24340.34;5034828;28;20171;-65
2022/09/18 09:29:00;;;;;;;1.73;1.38;;;;;;;19.03;nan;-24346.75;5034781;28;20172;-64
2022/09/18 09:31:34;;;;;;;1.70;1.45;;;;;;;19.34;nan;-24355.25;5034573;28;20244;-65
2022/09/18 09:34:23;;;;;;;1.23;1.13;;;;;;;19.29;nan;-24353.84;5034872;28;20699;-65
2022/09/18 09:36:52;;;;;;;1.67;1.40;;;;;;;19.39;nan;-24356.63;5034652;28;20209;-65
2022/09/18 09:39:38;;;;;;;1.35;1.25;;;;;;;19.09;nan;-24348.28;5033309;28;20522;-64
2022/09/18 09:42:20;;;;;;;1.30;1.17;;;;;;;19.04;nan;-24346.91;5034424;28;20159;-64
2022/09/18 09:44:58;;;;;;;1.05;1.00;;;;;;;19.45;nan;-24358.16;5034387;28;20211;-64
2022/09/18 09:47:49;;;;;;;2.17;1.40;;;;;;;19.55;nan;-24360.94;5034518;28;20183;-60
2022/09/18 09:50:48;;;;;;;1.52;1.30;;;;;;;19.19;nan;-24351.22;5034115;28;20233;-66
2022/09/18 09:53:13;;;;;;;0.90;0.90;;;;;;;19.47;nan;-24358.84;5034413;28;20164;-63
2022/09/18 09:55:43;;;;;;;1.50;1.20;;;;;;;19.72;nan;-24365.69;5034285;28;20254;-63
2022/09/18 09:58:26;;;;;;;1.50;1.10;;;;;;;19.40;nan;-24357.06;5034395;28;20203;-64
2022/09/18 10:01:04;;;;;;;1.17;1.00;;;;;;;19.63;nan;-24363.16;5034235;28;20197;-65
2022/09/18 10:03:44;;;;;;;1.20;1.10;;;;;;;19.73;nan;-24366.09;5033871;28;20280;-65
2022/09/18 10:06:40;;;;;;;1.33;0.90;;;;;;;19.68;nan;-24364.56;5034185;28;20183;-64
2022/09/18 10:09:08;;;;;;;1.17;0.90;;;;;;;19.32;nan;-24354.81;5033859;28;20575;-65
2022/09/18 10:11:36;;;;;;;1.73;1.33;;;;;;;19.40;nan;-24357.06;5033572;28;20384;-64
2022/09/18 10:14:16;;;;;;;1.10;1.00;;;;;;;19.60;nan;-24362.34;5033842;28;20167;-64
2022/09/18 10:16:46;;;;;;;1.00;1.00;;;;;;;19.25;nan;-24352.88;5033978;28;20646;-65
2022/09/18 10:19:19;;;;;;;0.90;0.90;;;;;;;19.38;nan;-24356.50;5034131;28;20535;-65
2022/09/18 10:21:46;;;;;;;1.55;1.13;;;;;;;19.29;nan;-24353.84;5033946;28;20175;-65
2022/09/18 10:24:28;;;;;;;1.10;1.00;;;;;;;19.48;nan;-24359.00;5032996;28;20213;-65
2022/09/18 10:27:01;;;;;;;1.13;1.02;;;;;;;19.50;nan;-24359.56;5034048;28;20237;-65
2022/09/18 10:29:26;;;;;;;1.20;1.00;;;;;;;19.59;nan;-24362.19;5033976;28;20226;-65
2022/09/18 10:31:55;;;;;;;1.38;1.27;;;;;;;19.64;nan;-24363.44;5033440;28;20171;-65
2022/09/18 10:34:47;;;;;;;1.20;1.10;;;;;;;19.64;nan;-24363.44;5033276;28;20225;-64
2022/09/18 10:37:17;;;;;;;1.52;1.23;;;;;;;19.91;nan;-24370.81;5033466;28;20237;-65
2022/09/18 10:39:56;;;;;;;1.13;1.02;;;;;;;19.55;nan;-24360.94;5033408;28;20178;-65
2022/09/18 10:42:24;;;;;;;1.40;1.30;;;;;;;19.50;nan;-24359.56;5033215;28;20262;-65
2022/09/18 10:44:57;;;;;;;1.20;1.00;;;;;;;19.35;nan;-24355.66;5033419;28;20207;-65
2022/09/18 10:47:26;;;;;;;0.95;0.90;;;;;;;19.63;nan;-24363.16;5033514;28;20198;-65
2022/09/18 10:50:14;;;;;;;1.27;1.02;;;;;;;19.56;nan;-24361.22;5015310;28;20237;-65
2022/09/18 10:52:41;;;;;;;1.20;1.10;;;;;;;19.96;nan;-24372.34;5033432;28;20182;-64
2022/09/18 10:55:06;;;;;;;1.23;1.08;;;;;;;19.92;nan;-24371.09;5032598;28;20534;-65
2022/09/18 10:57:36;;;;;;;1.10;1.00;;;;;;;19.53;nan;-24360.38;5032705;28;20178;-65
2022/09/18 11:00:28;;;;;;;1.10;1.00;;;;;;;19.39;nan;-24356.78;5032677;28;20180;-64
2022/09/18 11:02:56;;;;;;;1.20;1.10;;;;;;;19.79;nan;-24367.63;5032907;28;20594;-65
2022/09/18 11:05:31;;;;;;;1.13;1.02;;;;;;;19.89;nan;-24370.25;5032385;28;20214;-65
2022/09/18 11:08:00;;;;;;;1.60;1.10;;;;;;;19.72;nan;-24365.81;5032462;28;20167;-64
2022/09/18 11:10:28;;;;;;;1.83;1.30;;;;;;;20.01;nan;-24373.72;5032566;28;20262;-65
2022/09/18 11:12:56;;;;;;;2.53;1.55;;;;;;;20.14;nan;-24377.34;5032569;28;20202;-64
2022/09/18 11:15:28;;;;;;;1.20;1.05;;;;;;;20.07;nan;-24375.41;5032865;28;20167;-65
2022/09/18 11:17:56;;;;;;;2.25;1.60;;;;;;;20.26;nan;-24380.53;5032671;28;20564;-64
2022/09/18 11:20:39;;;;;;;1.50;1.10;;;;;;;20.31;nan;-24381.78;5014479;28;20172;-64
2022/09/18 11:23:30;;;;;;;2.08;1.42;;;;;;;20.34;nan;-24382.63;5032961;28;20194;-64
2022/09/18 11:26:20;;;;;;;1.33;1.23;;;;;;;20.37;nan;-24383.59;5032475;28;20218;-63
2022/09/18 11:28:57;;;;;;;1.33;1.23;;;;;;;20.43;nan;-24385.13;5032163;28;20159;-63
2022/09/18 11:31:24;;;;;;;1.67;1.25;;;;;;;20.19;nan;-24378.75;5032254;28;20175;-63
2022/09/18 11:33:55;;;;;;;1.27;1.10;;;;;;;20.25;nan;-24380.25;5032385;28;20193;-64
2022/09/18 11:36:27;;;;;;;1.25;1.05;;;;;;;20.53;nan;-24387.91;5031944;28;20689;-64
2022/09/18 11:38:53;;;;;;;2.05;1.23;;;;;;;20.07;nan;-24375.25;5032430;28;20262;-64
2022/09/18 11:41:25;;;;;;;1.25;1.15;;;;;;;20.31;nan;-24381.78;5032411;28;20175;-64
2022/09/18 11:44:03;;;;;;;1.02;0.93;;;;;;;20.18;nan;-24378.47;5031759;28;20343;-63
2022/09/18 11:46:56;;;;;;;1.30;1.20;;;;;;;20.47;nan;-24386.25;5032117;28;20253;-64
2022/09/18 11:49:26;;;;;;;2.28;1.27;;;;;;;20.53;nan;-24388.03;5031910;28;20171;-65
2022/09/18 11:51:57;;;;;;;1.20;1.00;;;;;;;20.47;nan;-24386.38;5032067;28;20209;-63
2022/09/18 11:54:54;;;;;;;1.83;1.20;;;;;;;20.60;nan;-24389.84;5032397;28;20163;-63
2022/09/18 11:57:42;;;;;;;1.10;1.00;;;;;;;20.52;nan;-24387.63;5030823;28;20590;-63
2022/09/18 12:00:16;;;;;;;1.42;1.27;;;;;;;20.38;nan;-24383.88;5014222;28;20176;-63